sensor_id;sensor_type;location;lat;lon;timestamp;P1;durP1;ratioP1;P2;durP2;ratioP2
47089;SDS011;32840;52.516;13.294;2023-04-01T00:01:04;5.20;;;2.33;;
47089;SDS011;32840;52.516;13.294;2023-04-01T00:03:50;5.25;;;2.20;;
47089;SDS011;32840;52.516;13.294;2023-04-01T00:06:34;4.60;;;2.13;;
47089;SDS011;32840;52.516;13.294;2023-04-01T00:09:21;5.53;;;2.20;;
47089;SDS011;32840;52.516;13.294;2023-04-01T00:12:08;3.85;;;2.03;;
47089;SDS011;32840;52.516;13.294;2023-04-01T00:14:53;4.50;;;1.92;;
47089;SDS011;32840;52.516;13.294;2023-04-01T00:17:38;5.32;;;2.00;;
47089;SDS011;32840;52.516;13.294;2023-04-01T00:20:27;7.50;;;2.33;;
47089;SDS011;32840;52.516;13.294;2023-04-01T00:23:21;4.30;;;1.92;;
47089;SDS011;32840;52.516;13.294;2023-04-01T00:26:06;5.65;;;2.05;;
47089;SDS011;32840;52.516;13.294;2023-04-01T00:28:51;3.53;;;1.65;;
47089;SDS011;32840;52.516;13.294;2023-04-01T00:31:36;3.55;;;1.70;;
47089;SDS011;32840;52.516;13.294;2023-04-01T00:34:22;5.20;;;1.83;;
47089;SDS011;32840;52.516;13.294;2023-04-01T00:37:08;5.57;;;1.80;;
47089;SDS011;32840;52.516;13.294;2023-04-01T00:39:52;5.90;;;2.20;;
47089;SDS011;32840;52.516;13.294;2023-04-01T00:42:38;5.28;;;2.15;;
47089;SDS011;32840;52.516;13.294;2023-04-01T00:45:44;4.78;;;2.40;;
47089;SDS011;32840;52.516;13.294;2023-04-01T00:48:31;4.75;;;2.00;;
47089;SDS011;32840;52.516;13.294;2023-04-01T00:51:23;3.65;;;1.80;;
47089;SDS011;32840;52.516;13.294;2023-04-01T00:54:13;5.93;;;1.98;;
47089;SDS011;32840;52.516;13.294;2023-04-01T00:57:10;3.30;;;2.00;;
47089;SDS011;32840;52.516;13.294;2023-04-01T00:59:59;8.27;;;2.30;;
47089;SDS011;32840;52.516;13.294;2023-04-01T01:02:45;5.18;;;2.00;;
47089;SDS011;32840;52.516;13.294;2023-04-01T01:08:51;5.78;;;1.95;;
47089;SDS011;32840;52.516;13.294;2023-04-01T01:12:13;4.50;;;2.20;;
47089;SDS011;32840;52.516;13.294;2023-04-01T01:17:57;5.88;;;2.00;;
47089;SDS011;32840;52.516;13.294;2023-04-01T01:27:24;5.65;;;1.80;;
47089;SDS011;32840;52.516;13.294;2023-04-01T01:33:47;5.13;;;2.03;;
47089;SDS011;32840;52.516;13.294;2023-04-01T01:36:34;6.13;;;2.05;;
47089;SDS011;32840;52.516;13.294;2023-04-01T01:39:20;5.78;;;2.05;;
47089;SDS011;32840;52.516;13.294;2023-04-01T01:42:13;3.08;;;1.67;;
47089;SDS011;32840;52.516;13.294;2023-04-01T01:45:00;4.43;;;1.77;;
47089;SDS011;32840;52.516;13.294;2023-04-01T01:47:46;4.43;;;2.15;;
47089;SDS011;32840;52.516;13.294;2023-04-01T01:50:34;3.13;;;1.60;;
47089;SDS011;32840;52.516;13.294;2023-04-01T01:53:21;4.13;;;1.90;;
47089;SDS011;32840;52.516;13.294;2023-04-01T01:56:06;5.25;;;2.22;;
47089;SDS011;32840;52.516;13.294;2023-04-01T01:58:52;4.53;;;1.73;;
47089;SDS011;32840;52.516;13.294;2023-04-01T02:04:29;3.85;;;1.63;;
47089;SDS011;32840;52.516;13.294;2023-04-01T02:07:20;3.65;;;1.73;;
47089;SDS011;32840;52.516;13.294;2023-04-01T02:10:10;5.13;;;1.80;;
47089;SDS011;32840;52.516;13.294;2023-04-01T02:12:57;4.70;;;1.70;;
47089;SDS011;32840;52.516;13.294;2023-04-01T02:15:48;5.45;;;1.77;;
47089;SDS011;32840;52.516;13.294;2023-04-01T02:18:39;4.30;;;1.77;;
47089;SDS011;32840;52.516;13.294;2023-04-01T02:21:27;6.50;;;1.75;;
47089;SDS011;32840;52.516;13.294;2023-04-01T02:24:15;3.67;;;1.70;;
47089;SDS011;32840;52.516;13.294;2023-04-01T02:27:00;4.00;;;2.25;;
47089;SDS011;32840;52.516;13.294;2023-04-01T02:29:48;10.10;;;2.10;;
47089;SDS011;32840;52.516;13.294;2023-04-01T02:32:33;4.50;;;2.22;;
47089;SDS011;32840;52.516;13.294;2023-04-01T02:35:22;5.38;;;1.65;;
47089;SDS011;32840;52.516;13.294;2023-04-01T02:38:08;5.35;;;1.88;;
47089;SDS011;32840;52.516;13.294;2023-04-01T02:40:58;4.47;;;1.90;;
47089;SDS011;32840;52.516;13.294;2023-04-01T02:43:46;4.38;;;2.03;;
47089;SDS011;32840;52.516;13.294;2023-04-01T02:46:30;3.72;;;1.70;;
47089;SDS011;32840;52.516;13.294;2023-04-01T02:49:15;3.92;;;1.85;;
47089;SDS011;32840;52.516;13.294;2023-04-01T02:52:00;4.85;;;2.33;;
47089;SDS011;32840;52.516;13.294;2023-04-01T02:54:45;4.82;;;2.17;;
47089;SDS011;32840;52.516;13.294;2023-04-01T02:57:30;7.35;;;2.08;;
47089;SDS011;32840;52.516;13.294;2023-04-01T03:00:23;5.53;;;1.77;;
47089;SDS011;32840;52.516;13.294;2023-04-01T03:06:13;15.85;;;2.58;;
47089;SDS011;32840;52.516;13.294;2023-04-01T03:09:09;4.55;;;1.80;;
47089;SDS011;32840;52.516;13.294;2023-04-01T03:11:54;5.18;;;1.73;;
47089;SDS011;32840;52.516;13.294;2023-04-01T03:14:39;6.25;;;1.80;;
47089;SDS011;32840;52.516;13.294;2023-04-01T03:17:24;4.88;;;2.13;;
47089;SDS011;32840;52.516;13.294;2023-04-01T03:20:09;4.05;;;1.92;;
47089;SDS011;32840;52.516;13.294;2023-04-01T03:22:56;4.05;;;1.92;;
47089;SDS011;32840;52.516;13.294;2023-04-01T03:25:41;7.82;;;2.42;;
47089;SDS011;32840;52.516;13.294;2023-04-01T03:28:29;4.88;;;2.17;;
47089;SDS011;32840;52.516;13.294;2023-04-01T03:31:14;3.97;;;1.92;;
47089;SDS011;32840;52.516;13.294;2023-04-01T03:34:01;5.93;;;1.60;;
47089;SDS011;32840;52.516;13.294;2023-04-01T03:36:45;2.97;;;1.73;;
47089;SDS011;32840;52.516;13.294;2023-04-01T03:39:31;5.13;;;1.70;;
47089;SDS011;32840;52.516;13.294;2023-04-01T03:42:15;4.80;;;1.90;;
47089;SDS011;32840;52.516;13.294;2023-04-01T03:45:00;4.30;;;1.63;;
47089;SDS011;32840;52.516;13.294;2023-04-01T03:47:47;6.22;;;1.75;;
47089;SDS011;32840;52.516;13.294;2023-04-01T03:50:31;5.95;;;1.95;;
47089;SDS011;32840;52.516;13.294;2023-04-01T03:53:18;4.75;;;1.83;;
47089;SDS011;32840;52.516;13.294;2023-04-01T03:56:05;6.50;;;2.00;;
47089;SDS011;32840;52.516;13.294;2023-04-01T03:58:55;3.47;;;2.00;;
47089;SDS011;32840;52.516;13.294;2023-04-01T04:01:40;4.10;;;1.98;;
47089;SDS011;32840;52.516;13.294;2023-04-01T04:04:26;2.95;;;1.65;;
47089;SDS011;32840;52.516;13.294;2023-04-01T04:07:11;6.15;;;2.10;;
47089;SDS011;32840;52.516;13.294;2023-04-01T04:09:57;5.55;;;1.73;;
47089;SDS011;32840;52.516;13.294;2023-04-01T04:12:42;4.95;;;2.13;;
47089;SDS011;32840;52.516;13.294;2023-04-01T04:15:32;6.50;;;2.22;;
47089;SDS011;32840;52.516;13.294;2023-04-01T04:18:17;6.07;;;2.22;;
47089;SDS011;32840;52.516;13.294;2023-04-01T04:21:03;5.22;;;2.30;;
47089;SDS011;32840;52.516;13.294;2023-04-01T04:23:48;6.65;;;2.50;;
47089;SDS011;32840;52.516;13.294;2023-04-01T04:26:33;5.55;;;2.08;;
47089;SDS011;32840;52.516;13.294;2023-04-01T04:29:18;5.22;;;2.47;;
47089;SDS011;32840;52.516;13.294;2023-04-01T04:32:03;5.20;;;1.90;;
47089;SDS011;32840;52.516;13.294;2023-04-01T04:34:51;4.47;;;2.40;;
47089;SDS011;32840;52.516;13.294;2023-04-01T04:37:37;5.97;;;2.83;;
47089;SDS011;32840;52.516;13.294;2023-04-01T04:40:23;5.30;;;2.00;;
47089;SDS011;32840;52.516;13.294;2023-04-01T04:43:13;5.97;;;2.30;;
47089;SDS011;32840;52.516;13.294;2023-04-01T04:46:03;8.88;;;2.95;;
47089;SDS011;32840;52.516;13.294;2023-04-01T04:48:56;8.20;;;2.90;;
47089;SDS011;32840;52.516;13.294;2023-04-01T04:51:43;7.75;;;2.90;;
47089;SDS011;32840;52.516;13.294;2023-04-01T04:54:29;9.50;;;2.75;;
47089;SDS011;32840;52.516;13.294;2023-04-01T04:57:15;6.22;;;2.58;;
47089;SDS011;32840;52.516;13.294;2023-04-01T05:00:00;7.97;;;2.88;;
47089;SDS011;32840;52.516;13.294;2023-04-01T05:02:45;7.68;;;2.95;;
47089;SDS011;32840;52.516;13.294;2023-04-01T05:05:33;7.78;;;2.90;;
47089;SDS011;32840;52.516;13.294;2023-04-01T05:08:17;7.10;;;2.85;;
47089;SDS011;32840;52.516;13.294;2023-04-01T05:11:03;5.82;;;2.58;;
47089;SDS011;32840;52.516;13.294;2023-04-01T05:13:49;6.00;;;2.70;;
47089;SDS011;32840;52.516;13.294;2023-04-01T05:16:34;8.25;;;2.53;;
47089;SDS011;32840;52.516;13.294;2023-04-01T05:19:19;5.85;;;2.40;;
47089;SDS011;32840;52.516;13.294;2023-04-01T05:22:07;7.47;;;2.35;;
47089;SDS011;32840;52.516;13.294;2023-04-01T05:24:52;8.63;;;2.97;;
47089;SDS011;32840;52.516;13.294;2023-04-01T05:27:41;9.88;;;3.03;;
47089;SDS011;32840;52.516;13.294;2023-04-01T05:30:28;7.72;;;2.95;;
47089;SDS011;32840;52.516;13.294;2023-04-01T05:33:13;6.95;;;2.40;;
47089;SDS011;32840;52.516;13.294;2023-04-01T05:36:05;5.30;;;2.60;;
47089;SDS011;32840;52.516;13.294;2023-04-01T05:38:55;5.82;;;2.50;;
47089;SDS011;32840;52.516;13.294;2023-04-01T05:41:40;5.45;;;2.70;;
47089;SDS011;32840;52.516;13.294;2023-04-01T05:44:25;6.03;;;2.92;;
47089;SDS011;32840;52.516;13.294;2023-04-01T05:47:10;5.05;;;2.53;;
47089;SDS011;32840;52.516;13.294;2023-04-01T05:49:55;9.95;;;3.53;;
47089;SDS011;32840;52.516;13.294;2023-04-01T05:52:40;8.18;;;3.33;;
47089;SDS011;32840;52.516;13.294;2023-04-01T05:55:26;7.68;;;2.60;;
47089;SDS011;32840;52.516;13.294;2023-04-01T05:58:11;6.85;;;2.80;;
47089;SDS011;32840;52.516;13.294;2023-04-01T06:01:03;6.18;;;2.72;;
47089;SDS011;32840;52.516;13.294;2023-04-01T06:03:52;6.90;;;2.50;;
47089;SDS011;32840;52.516;13.294;2023-04-01T06:06:37;7.72;;;3.28;;
47089;SDS011;32840;52.516;13.294;2023-04-01T06:09:26;8.05;;;2.88;;
47089;SDS011;32840;52.516;13.294;2023-04-01T06:12:31;7.60;;;2.53;;
47089;SDS011;32840;52.516;13.294;2023-04-01T06:15:30;5.68;;;2.53;;
47089;SDS011;32840;52.516;13.294;2023-04-01T06:25:31;7.82;;;3.03;;
47089;SDS011;32840;52.516;13.294;2023-04-01T06:35:16;5.40;;;2.40;;
47089;SDS011;32840;52.516;13.294;2023-04-01T06:54:14;5.93;;;1.90;;
47089;SDS011;32840;52.516;13.294;2023-04-01T06:57:19;7.85;;;2.50;;
47089;SDS011;32840;52.516;13.294;2023-04-01T07:00:27;9.70;;;2.50;;
47089;SDS011;32840;52.516;13.294;2023-04-01T07:06:32;6.32;;;2.38;;
47089;SDS011;32840;52.516;13.294;2023-04-01T07:09:34;34.30;;;18.10;;
47089;SDS011;32840;52.516;13.294;2023-04-01T07:15:33;13.68;;;7.07;;
47089;SDS011;32840;52.516;13.294;2023-04-01T07:18:29;8.63;;;3.63;;
47089;SDS011;32840;52.516;13.294;2023-04-01T07:21:43;8.90;;;4.15;;
47089;SDS011;32840;52.516;13.294;2023-04-01T07:28:04;10.35;;;2.97;;
47089;SDS011;32840;52.516;13.294;2023-04-01T07:31:01;7.00;;;3.28;;
47089;SDS011;32840;52.516;13.294;2023-04-01T07:34:06;6.32;;;3.00;;
47089;SDS011;32840;52.516;13.294;2023-04-01T07:37:18;10.32;;;3.05;;
47089;SDS011;32840;52.516;13.294;2023-04-01T07:53:24;5.97;;;2.65;;
47089;SDS011;32840;52.516;13.294;2023-04-01T07:59:32;7.53;;;3.22;;
47089;SDS011;32840;52.516;13.294;2023-04-01T08:02:43;9.25;;;3.35;;
47089;SDS011;32840;52.516;13.294;2023-04-01T08:05:56;7.63;;;3.00;;
47089;SDS011;32840;52.516;13.294;2023-04-01T08:09:04;9.05;;;3.70;;
47089;SDS011;32840;52.516;13.294;2023-04-01T08:15:20;6.60;;;2.95;;
47089;SDS011;32840;52.516;13.294;2023-04-01T08:18:28;39.65;;;22.98;;
47089;SDS011;32840;52.516;13.294;2023-04-01T08:22:13;6.47;;;3.72;;
47089;SDS011;32840;52.516;13.294;2023-04-01T08:25:06;6.20;;;3.60;;
47089;SDS011;32840;52.516;13.294;2023-04-01T08:34:02;6.10;;;3.00;;
47089;SDS011;32840;52.516;13.294;2023-04-01T08:36:59;4.22;;;2.50;;
47089;SDS011;32840;52.516;13.294;2023-04-01T08:39:56;7.03;;;2.83;;
47089;SDS011;32840;52.516;13.294;2023-04-01T08:43:07;11.90;;;2.60;;
47089;SDS011;32840;52.516;13.294;2023-04-01T08:46:39;5.53;;;3.60;;
47089;SDS011;32840;52.516;13.294;2023-04-01T08:53:15;7.47;;;5.22;;
47089;SDS011;32840;52.516;13.294;2023-04-01T08:59:19;5.43;;;2.40;;
47089;SDS011;32840;52.516;13.294;2023-04-01T09:02:23;5.53;;;3.42;;
47089;SDS011;32840;52.516;13.294;2023-04-01T09:15:19;6.68;;;4.95;;
47089;SDS011;32840;52.516;13.294;2023-04-01T09:25:01;8.48;;;6.28;;
47089;SDS011;32840;52.516;13.294;2023-04-01T09:28:28;9.60;;;6.78;;
47089;SDS011;32840;52.516;13.294;2023-04-01T09:34:55;9.50;;;7.18;;
47089;SDS011;32840;52.516;13.294;2023-04-01T09:38:09;9.77;;;7.60;;
47089;SDS011;32840;52.516;13.294;2023-04-01T09:41:35;11.43;;;9.02;;
47089;SDS011;32840;52.516;13.294;2023-04-01T09:44:45;11.40;;;8.88;;
47089;SDS011;32840;52.516;13.294;2023-04-01T09:53:56;13.43;;;10.55;;
47089;SDS011;32840;52.516;13.294;2023-04-01T10:00:17;11.95;;;9.70;;
47089;SDS011;32840;52.516;13.294;2023-04-01T10:17:07;14.25;;;11.18;;
47089;SDS011;32840;52.516;13.294;2023-04-01T10:57:56;18.53;;;11.17;;
47089;SDS011;32840;52.516;13.294;2023-04-01T11:04:39;14.05;;;10.55;;
47089;SDS011;32840;52.516;13.294;2023-04-01T11:24:24;10.50;;;9.00;;
47089;SDS011;32840;52.516;13.294;2023-04-01T11:27:28;9.68;;;8.65;;
47089;SDS011;32840;52.516;13.294;2023-04-01T11:30:43;10.45;;;8.63;;
47089;SDS011;32840;52.516;13.294;2023-04-01T11:33:44;11.70;;;10.38;;
47089;SDS011;32840;52.516;13.294;2023-04-01T11:43:18;11.65;;;8.27;;
47089;SDS011;32840;52.516;13.294;2023-04-01T11:47:03;11.65;;;9.15;;
47089;SDS011;32840;52.516;13.294;2023-04-01T11:53:43;9.77;;;8.43;;
47089;SDS011;32840;52.516;13.294;2023-04-01T12:00:57;10.80;;;9.57;;
47089;SDS011;32840;52.516;13.294;2023-04-01T12:04:32;11.45;;;9.90;;
47089;SDS011;32840;52.516;13.294;2023-04-01T12:21:25;13.43;;;11.55;;
47089;SDS011;32840;52.516;13.294;2023-04-01T12:24:40;13.02;;;11.63;;
47089;SDS011;32840;52.516;13.294;2023-04-01T12:27:41;15.00;;;12.48;;
47089;SDS011;32840;52.516;13.294;2023-04-01T12:34:24;13.90;;;11.82;;
47089;SDS011;32840;52.516;13.294;2023-04-01T13:07:25;13.95;;;11.73;;
47089;SDS011;32840;52.516;13.294;2023-04-01T13:10:38;12.63;;;11.27;;
47089;SDS011;32840;52.516;13.294;2023-04-01T13:13:51;14.88;;;11.75;;
47089;SDS011;32840;52.516;13.294;2023-04-01T13:20:02;17.05;;;13.02;;
47089;SDS011;32840;52.516;13.294;2023-04-01T13:23:18;15.23;;;12.63;;
47089;SDS011;32840;52.516;13.294;2023-04-01T13:38:39;12.95;;;11.02;;
47089;SDS011;32840;52.516;13.294;2023-04-01T13:42:11;14.27;;;11.20;;
47089;SDS011;32840;52.516;13.294;2023-04-01T13:45:16;17.60;;;11.27;;
47089;SDS011;32840;52.516;13.294;2023-04-01T14:11:10;8.82;;;7.25;;
47089;SDS011;32840;52.516;13.294;2023-04-01T14:26:26;10.50;;;5.68;;
47089;SDS011;32840;52.516;13.294;2023-04-01T14:29:36;8.18;;;6.28;;
47089;SDS011;32840;52.516;13.294;2023-04-01T14:35:41;6.85;;;5.22;;
47089;SDS011;32840;52.516;13.294;2023-04-01T14:45:29;7.82;;;4.97;;
47089;SDS011;32840;52.516;13.294;2023-04-01T14:48:58;9.05;;;5.30;;
47089;SDS011;32840;52.516;13.294;2023-04-01T14:52:25;6.40;;;4.95;;
47089;SDS011;32840;52.516;13.294;2023-04-01T14:55:31;6.68;;;5.13;;
47089;SDS011;32840;52.516;13.294;2023-04-01T15:01:55;6.80;;;5.50;;
47089;SDS011;32840;52.516;13.294;2023-04-01T15:04:56;7.32;;;5.65;;
47089;SDS011;32840;52.516;13.294;2023-04-01T15:17:05;8.00;;;4.35;;
47089;SDS011;32840;52.516;13.294;2023-04-01T15:20:25;7.18;;;4.55;;
47089;SDS011;32840;52.516;13.294;2023-04-01T15:23:25;6.10;;;4.35;;
47089;SDS011;32840;52.516;13.294;2023-04-01T15:27:29;5.95;;;4.30;;
47089;SDS011;32840;52.516;13.294;2023-04-01T15:37:20;8.85;;;5.80;;
47089;SDS011;32840;52.516;13.294;2023-04-01T15:40:17;9.00;;;6.15;;
47089;SDS011;32840;52.516;13.294;2023-04-01T15:43:32;9.23;;;6.57;;
47089;SDS011;32840;52.516;13.294;2023-04-01T15:49:53;8.43;;;6.55;;
47089;SDS011;32840;52.516;13.294;2023-04-01T15:53:24;11.38;;;7.30;;
47089;SDS011;32840;52.516;13.294;2023-04-01T15:59:51;9.93;;;6.70;;
47089;SDS011;32840;52.516;13.294;2023-04-01T16:06:10;9.05;;;6.35;;
47089;SDS011;32840;52.516;13.294;2023-04-01T16:09:23;11.63;;;6.90;;
47089;SDS011;32840;52.516;13.294;2023-04-01T16:12:33;9.07;;;6.72;;
47089;SDS011;32840;52.516;13.294;2023-04-01T16:15:50;10.48;;;7.15;;
47089;SDS011;32840;52.516;13.294;2023-04-01T16:19:04;9.98;;;7.18;;
47089;SDS011;32840;52.516;13.294;2023-04-01T16:22:13;8.93;;;5.80;;
47089;SDS011;32840;52.516;13.294;2023-04-01T16:31:09;7.10;;;5.22;;
47089;SDS011;32840;52.516;13.294;2023-04-01T16:34:17;6.85;;;5.35;;
47089;SDS011;32840;52.516;13.294;2023-04-01T16:37:10;9.07;;;6.03;;
47089;SDS011;32840;52.516;13.294;2023-04-01T16:43:26;9.30;;;5.45;;
47089;SDS011;32840;52.516;13.294;2023-04-01T16:46:32;7.18;;;5.78;;
47089;SDS011;32840;52.516;13.294;2023-04-01T16:49:24;7.97;;;5.30;;
47089;SDS011;32840;52.516;13.294;2023-04-01T16:52:14;8.48;;;5.95;;
47089;SDS011;32840;52.516;13.294;2023-04-01T16:55:03;7.65;;;5.45;;
47089;SDS011;32840;52.516;13.294;2023-04-01T16:57:59;7.57;;;4.95;;
47089;SDS011;32840;52.516;13.294;2023-04-01T17:00:50;8.52;;;6.00;;
47089;SDS011;32840;52.516;13.294;2023-04-01T17:03:46;9.20;;;5.78;;
47089;SDS011;32840;52.516;13.294;2023-04-01T17:06:45;7.10;;;4.95;;
47089;SDS011;32840;52.516;13.294;2023-04-01T17:09:51;7.43;;;4.85;;
47089;SDS011;32840;52.516;13.294;2023-04-01T17:12:51;6.82;;;5.05;;
47089;SDS011;32840;52.516;13.294;2023-04-01T17:19:05;19.77;;;15.65;;
47089;SDS011;32840;52.516;13.294;2023-04-01T17:28:48;6.85;;;4.47;;
47089;SDS011;32840;52.516;13.294;2023-04-01T17:31:50;11.20;;;5.07;;
47089;SDS011;32840;52.516;13.294;2023-04-01T17:35:08;9.48;;;5.30;;
47089;SDS011;32840;52.516;13.294;2023-04-01T17:38:17;6.22;;;4.78;;
47089;SDS011;32840;52.516;13.294;2023-04-01T17:54:00;7.75;;;5.55;;
47089;SDS011;32840;52.516;13.294;2023-04-01T18:00:00;7.72;;;5.15;;
47089;SDS011;32840;52.516;13.294;2023-04-01T18:02:55;7.38;;;5.57;;
47089;SDS011;32840;52.516;13.294;2023-04-01T18:09:31;7.53;;;5.00;;
47089;SDS011;32840;52.516;13.294;2023-04-01T18:13:04;7.80;;;5.43;;
47089;SDS011;32840;52.516;13.294;2023-04-01T18:16:16;8.13;;;5.07;;
47089;SDS011;32840;52.516;13.294;2023-04-01T18:22:29;7.78;;;5.60;;
47089;SDS011;32840;52.516;13.294;2023-04-01T18:25:28;10.15;;;5.57;;
47089;SDS011;32840;52.516;13.294;2023-04-01T18:28:44;11.75;;;7.00;;
47089;SDS011;32840;52.516;13.294;2023-04-01T18:31:44;9.07;;;5.78;;
47089;SDS011;32840;52.516;13.294;2023-04-01T18:34:50;8.77;;;5.47;;
47089;SDS011;32840;52.516;13.294;2023-04-01T18:37:44;6.60;;;5.38;;
47089;SDS011;32840;52.516;13.294;2023-04-01T18:40:37;10.43;;;6.68;;
47089;SDS011;32840;52.516;13.294;2023-04-01T18:43:33;13.15;;;7.03;;
47089;SDS011;32840;52.516;13.294;2023-04-01T18:46:33;10.57;;;6.80;;
47089;SDS011;32840;52.516;13.294;2023-04-01T18:53:17;11.43;;;6.90;;
47089;SDS011;32840;52.516;13.294;2023-04-01T18:58:52;10.23;;;7.22;;
47089;SDS011;32840;52.516;13.294;2023-04-01T19:01:52;11.15;;;7.25;;
47089;SDS011;32840;52.516;13.294;2023-04-01T19:05:07;14.07;;;7.50;;
47089;SDS011;32840;52.516;13.294;2023-04-01T19:11:18;15.32;;;8.93;;
47089;SDS011;32840;52.516;13.294;2023-04-01T19:14:23;9.65;;;6.80;;
47089;SDS011;32840;52.516;13.294;2023-04-01T19:20:14;10.80;;;7.38;;
47089;SDS011;32840;52.516;13.294;2023-04-01T19:26:13;14.60;;;7.45;;
47089;SDS011;32840;52.516;13.294;2023-04-01T19:32:09;16.08;;;9.18;;
47089;SDS011;32840;52.516;13.294;2023-04-01T19:35:17;12.80;;;8.35;;
47089;SDS011;32840;52.516;13.294;2023-04-01T19:41:44;12.93;;;8.60;;
47089;SDS011;32840;52.516;13.294;2023-04-01T19:44:47;14.10;;;7.93;;
47089;SDS011;32840;52.516;13.294;2023-04-01T19:51:00;13.80;;;9.40;;
47089;SDS011;32840;52.516;13.294;2023-04-01T19:54:14;14.52;;;9.35;;
47089;SDS011;32840;52.516;13.294;2023-04-01T19:57:12;13.93;;;9.13;;
47089;SDS011;32840;52.516;13.294;2023-04-01T20:00:06;14.73;;;9.85;;
47089;SDS011;32840;52.516;13.294;2023-04-01T20:06:21;17.38;;;9.48;;
47089;SDS011;32840;52.516;13.294;2023-04-01T20:12:40;17.02;;;9.43;;
47089;SDS011;32840;52.516;13.294;2023-04-01T20:15:43;18.17;;;10.32;;
47089;SDS011;32840;52.516;13.294;2023-04-01T20:18:48;12.95;;;8.40;;
47089;SDS011;32840;52.516;13.294;2023-04-01T20:21:43;15.98;;;9.38;;
47089;SDS011;32840;52.516;13.294;2023-04-01T20:24:51;16.42;;;8.90;;
47089;SDS011;32840;52.516;13.294;2023-04-01T20:28:02;13.85;;;9.43;;
47089;SDS011;32840;52.516;13.294;2023-04-01T20:31:24;13.90;;;8.80;;
47089;SDS011;32840;52.516;13.294;2023-04-01T20:34:12;15.23;;;9.40;;
47089;SDS011;32840;52.516;13.294;2023-04-01T20:43:52;19.60;;;10.32;;
47089;SDS011;32840;52.516;13.294;2023-04-01T20:52:52;18.65;;;10.55;;
47089;SDS011;32840;52.516;13.294;2023-04-01T20:55:58;17.70;;;10.38;;
47089;SDS011;32840;52.516;13.294;2023-04-01T21:02:20;20.60;;;10.50;;
47089;SDS011;32840;52.516;13.294;2023-04-01T21:05:45;15.10;;;9.73;;
47089;SDS011;32840;52.516;13.294;2023-04-01T21:12:21;17.67;;;10.60;;
47089;SDS011;32840;52.516;13.294;2023-04-01T21:24:39;20.85;;;10.05;;
47089;SDS011;32840;52.516;13.294;2023-04-01T21:31:10;17.90;;;9.07;;
47089;SDS011;32840;52.516;13.294;2023-04-01T21:50:00;13.25;;;9.02;;
47089;SDS011;32840;52.516;13.294;2023-04-01T22:06:40;16.63;;;8.95;;
47089;SDS011;32840;52.516;13.294;2023-04-01T22:09:38;16.52;;;8.65;;
47089;SDS011;32840;52.516;13.294;2023-04-01T22:12:50;14.93;;;7.90;;
47089;SDS011;32840;52.516;13.294;2023-04-01T22:19:05;9.18;;;6.47;;
47089;SDS011;32840;52.516;13.294;2023-04-01T22:25:38;12.52;;;7.00;;
47089;SDS011;32840;52.516;13.294;2023-04-01T22:28:42;7.80;;;6.22;;
47089;SDS011;32840;52.516;13.294;2023-04-01T22:35:22;11.35;;;6.45;;
47089;SDS011;32840;52.516;13.294;2023-04-01T22:38:55;10.93;;;5.93;;
47089;SDS011;32840;52.516;13.294;2023-04-01T22:41:55;10.95;;;5.97;;
47089;SDS011;32840;52.516;13.294;2023-04-01T22:48:13;9.68;;;5.75;;
47089;SDS011;32840;52.516;13.294;2023-04-01T22:51:24;10.25;;;6.40;;
47089;SDS011;32840;52.516;13.294;2023-04-01T22:54:29;10.07;;;6.25;;
47089;SDS011;32840;52.516;13.294;2023-04-01T23:00:34;10.70;;;7.80;;
47089;SDS011;32840;52.516;13.294;2023-04-01T23:03:32;9.75;;;6.57;;
47089;SDS011;32840;52.516;13.294;2023-04-01T23:06:28;8.88;;;6.70;;
47089;SDS011;32840;52.516;13.294;2023-04-01T23:09:18;12.25;;;7.03;;
47089;SDS011;32840;52.516;13.294;2023-04-01T23:12:13;10.10;;;6.55;;
47089;SDS011;32840;52.516;13.294;2023-04-01T23:15:10;9.95;;;7.20;;
47089;SDS011;32840;52.516;13.294;2023-04-01T23:20:54;8.38;;;6.50;;
47089;SDS011;32840;52.516;13.294;2023-04-01T23:27:11;8.90;;;6.28;;
47089;SDS011;32840;52.516;13.294;2023-04-01T23:30:45;8.80;;;7.15;;
47089;SDS011;32840;52.516;13.294;2023-04-01T23:33:23;11.50;;;6.40;;
47089;SDS011;32840;52.516;13.294;2023-04-01T23:36:13;11.35;;;6.28;;
47089;SDS011;32840;52.516;13.294;2023-04-01T23:39:03;10.82;;;6.88;;
47089;SDS011;32840;52.516;13.294;2023-04-01T23:41:52;8.52;;;5.53;;
47089;SDS011;32840;52.516;13.294;2023-04-01T23:44:42;10.68;;;5.82;;
47089;SDS011;32840;52.516;13.294;2023-04-01T23:50:21;9.88;;;5.97;;
47089;SDS011;32840;52.516;13.294;2023-04-01T23:56:02;8.45;;;5.00;;
47089;SDS011;32840;52.516;13.294;2023-04-01T23:58:48;10.55;;;6.07;;
